Time;durP1;ratioP1;P1;durP2;ratioP2;P2;SDS_P1;SDS_P2;PMS_P1;PMS_P2;Temp;Humidity;BMP_temperature;BMP_pressure;BME280_temperature;BME280_humidity;BME280_pressure;Samples;Min_cycle;Max_cycle;Signal;HPM_P1;HPM_P2
2020/12/11 00:00:03;;;;;;;10.18;8.50;;;16.20;53.80;;;;;;5063747;28;20107;-81
2020/12/11 00:02:29;;;;;;;10.50;8.57;;;16.20;53.80;;;;;;5079990;28;20484;-80
2020/12/11 00:04:54;;;;;;;11.57;8.80;;;16.20;53.80;;;;;;5056934;28;20044;-81
2020/12/11 00:07:20;;;;;;;9.60;7.97;;;16.20;53.80;;;;;;5043378;28;20044;-80
2020/12/11 00:10:07;;;;;;;9.48;8.48;;;16.20;54.50;;;;;;5048258;28;20033;-79
2020/12/11 00:12:33;;;;;;;10.25;8.30;;;16.20;53.90;;;;;;5061460;28;20052;-79
2020/12/11 00:15:01;;;;;;;10.70;8.45;;;16.20;54.00;;;;;;5044126;28;20050;-79
2020/12/11 00:17:47;;;;;;;9.20;8.20;;;16.20;54.00;;;;;;5080334;28;20040;-80
2020/12/11 00:20:13;;;;;;;10.27;8.40;;;16.20;54.10;;;;;;5075816;28;20055;-80
2020/12/11 00:22:58;;;;;;;9.85;8.43;;;16.20;54.00;;;;;;5065948;28;20499;-81
2020/12/11 00:25:24;;;;;;;9.38;8.23;;;16.20;54.10;;;;;;5093721;28;20038;-78
2020/12/11 00:27:50;;;;;;;10.95;8.55;;;16.20;54.10;;;;;;5043300;28;20063;-80
2020/12/11 00:30:16;;;;;;;10.07;8.13;;;16.20;54.60;;;;;;5091387;28;20098;-79
2020/12/11 00:32:42;;;;;;;10.18;8.60;;;16.20;54.10;;;;;;5042675;28;20051;-79
2020/12/11 00:35:27;;;;;;;9.48;8.13;;;16.20;54.10;;;;;;5062116;28;20040;-81
2020/12/11 00:37:53;;;;;;;10.25;8.40;;;16.20;54.20;;;;;;5057385;28;20036;-81
2020/12/11 00:40:19;;;;;;;10.18;8.43;;;16.10;54.10;;;;;;5089998;28;20048;-81
2020/12/11 00:42:45;;;;;;;10.98;8.27;;;16.10;54.20;;;;;;5091331;28;20070;-80
2020/12/11 00:45:10;;;;;;;9.50;8.25;;;16.10;54.20;;;;;;5091635;28;20433;-80
2020/12/11 00:47:36;;;;;;;8.80;7.88;;;16.00;54.20;;;;;;5075646;28;20123;-81
2020/12/11 00:50:02;;;;;;;10.77;8.32;;;16.10;54.20;;;;;;5057848;28;20409;-80
2020/12/11 00:52:28;;;;;;;9.85;8.25;;;16.10;54.20;;;;;;5103276;27;20071;-81
2020/12/11 00:54:54;;;;;;;8.38;7.47;;;16.00;54.20;;;;;;5058306;28;20510;-79
2020/12/11 00:57:39;;;;;;;10.82;8.32;;;16.10;54.30;;;;;;5062556;28;20051;-81
2020/12/11 01:00:05;;;;;;;10.45;8.02;;;16.00;54.40;;;;;;5074435;28;20036;-81
2020/12/11 01:02:31;;;;;;;9.35;8.15;;;16.00;54.40;;;;;;5058395;28;20412;-82
2020/12/11 01:05:18;;;;;;;10.95;8.40;;;16.00;54.40;;;;;;5052538;28;20052;-79
2020/12/11 01:08:04;;;;;;;9.77;7.93;;;16.00;54.40;;;;;;5065075;28;20079;-80
2020/12/11 01:10:30;;;;;;;9.98;8.30;;;15.90;54.70;;;;;;5056553;28;20142;-80
2020/12/11 01:12:56;;;;;;;9.98;8.20;;;16.00;54.50;;;;;;5074032;28;20122;-80
2020/12/11 01:15:41;;;;;;;8.43;7.45;;;16.00;54.50;;;;;;5050297;28;20076;-80
2020/12/11 01:18:07;;;;;;;8.70;7.75;;;15.90;54.60;;;;;;5074090;28;20063;-81
2020/12/11 01:20:33;;;;;;;8.90;7.78;;;15.90;54.60;;;;;;5058445;28;20517;-80
2020/12/11 01:23:18;;;;;;;9.57;7.63;;;15.90;54.60;;;;;;5060713;28;20040;-81
2020/12/11 01:26:07;;;;;;;8.45;7.55;;;15.90;54.70;;;;;;5034694;28;20083;-81
2020/12/11 01:28:33;;;;;;;9.98;8.13;;;15.90;54.70;;;;;;5072852;28;20078;-81
2020/12/11 01:30:59;;;;;;;9.02;7.43;;;15.90;54.70;;;;;;5056639;28;20048;-81
2020/12/11 01:33:25;;;;;;;10.02;7.18;;;15.90;54.70;;;;;;5083032;28;20062;-80
2020/12/11 01:35:50;;;;;;;9.73;7.95;;;16.00;55.40;;;;;;5056320;28;20024;-79
2020/12/11 01:38:16;;;;;;;10.05;7.93;;;15.90;54.70;;;;;;5073980;28;20526;-80
2020/12/11 01:40:44;;;;;;;8.68;7.78;;;15.90;54.70;;;;;;5058127;28;20480;-81
2020/12/11 01:43:10;;;;;;;8.95;7.38;;;15.90;54.80;;;;;;5040616;28;20048;-79
2020/12/11 01:45:56;;;;;;;8.55;7.00;;;15.90;54.80;;;;;;5048106;28;20044;-81
2020/12/11 01:48:42;;;;;;;10.80;7.07;;;15.80;54.80;;;;;;5049204;28;20044;-80
2020/12/11 01:51:08;;;;;;;9.10;7.95;;;15.80;54.80;;;;;;5072335;28;20052;-81
2020/12/11 01:53:54;;;;;;;7.95;7.05;;;15.80;54.90;;;;;;5089485;28;20079;-81
2020/12/11 01:56:20;;;;;;;8.15;6.90;;;15.80;55.00;;;;;;5090656;28;20072;-80
2020/12/11 01:58:47;;;;;;;7.70;6.93;;;15.80;55.00;;;;;;5086996;28;20061;-81
2020/12/11 02:01:16;;;;;;;9.15;6.88;;;15.80;55.00;;;;;;5054573;28;20069;-80
2020/12/11 02:03:42;;;;;;;8.90;7.32;;;15.80;55.10;;;;;;5088093;28;20071;-81
2020/12/11 02:06:08;;;;;;;10.15;7.53;;;15.70;55.00;;;;;;5090858;28;20055;-81
2020/12/11 02:08:33;;;;;;;8.23;6.95;;;15.70;55.00;;;;;;5085399;28;20425;-81
2020/12/11 02:10:59;;;;;;;7.38;6.68;;;15.70;55.10;;;;;;5072643;28;20079;-80
2020/12/11 02:13:25;;;;;;;7.70;6.90;;;15.80;55.10;;;;;;5090806;28;20024;-80
2020/12/11 02:16:11;;;;;;;8.05;6.93;;;15.70;55.10;;;;;;5061241;28;20131;-81
2020/12/11 02:18:56;;;;;;;9.57;7.13;;;15.80;55.10;;;;;;5062184;28;20048;-80
2020/12/11 02:21:22;;;;;;;8.20;7.18;;;15.80;55.10;;;;;;5074548;28;20056;-81
2020/12/11 02:23:48;;;;;;;7.75;6.95;;;15.80;55.10;;;;;;5048852;28;20457;-80
2020/12/11 02:26:33;;;;;;;7.65;6.78;;;15.80;55.10;;;;;;5060989;28;20052;-82
2020/12/11 02:29:19;;;;;;;7.57;6.78;;;15.80;55.10;;;;;;5060551;28;20067;-80
2020/12/11 02:32:05;;;;;;;7.35;6.57;;;15.70;55.10;;;;;;5047517;28;20036;-82
2020/12/11 02:34:32;;;;;;;8.93;6.80;;;15.80;55.10;;;;;;5069222;28;20043;-82
2020/12/11 02:37:03;;;;;;;7.45;6.45;;;15.80;55.10;;;;;;5039579;28;20101;-81
2020/12/11 02:39:29;;;;;;;7.57;6.78;;;15.80;55.20;;;;;;5073912;28;20036;-79
2020/12/11 02:41:55;;;;;;;7.93;6.72;;;15.70;55.10;;;;;;5073515;28;20075;-80
2020/12/11 02:44:41;;;;;;;6.97;6.28;;;15.80;55.10;;;;;;5050911;28;20040;-80
2020/12/11 02:47:06;;;;;;;8.23;7.00;;;15.70;55.10;;;;;;5072836;28;20032;-82
2020/12/11 02:49:32;;;;;;;6.97;6.28;;;15.70;55.00;;;;;;5063552;28;20093;-82
2020/12/11 02:51:57;;;;;;;7.90;6.22;;;15.80;55.10;;;;;;5087987;28;20043;-80
2020/12/11 02:54:23;;;;;;;7.07;6.10;;;15.70;55.00;;;;;;5056976;28;20048;-80
2020/12/11 02:56:49;;;;;;;7.40;6.65;;;15.70;55.10;;;;;;5042625;28;20073;-81
2020/12/11 02:59:15;;;;;;;7.90;6.25;;;15.70;55.00;;;;;;5074121;28;20067;-80
2020/12/11 03:01:40;;;;;;;6.40;5.80;;;15.80;55.10;;;;;;5040698;28;20110;-82
2020/12/11 03:04:06;;;;;;;6.95;6.15;;;15.70;55.00;;;;;;5055962;28;20064;-81
2020/12/11 03:06:32;;;;;;;6.55;5.93;;;15.70;55.00;;;;;;5049280;28;20036;-80
2020/12/11 03:08:58;;;;;;;7.63;6.30;;;15.70;55.00;;;;;;5073545;28;20032;-83
2020/12/11 03:11:24;;;;;;;7.30;6.22;;;15.70;55.00;;;;;;5055822;28;20198;-83
2020/12/11 03:13:50;;;;;;;6.55;5.93;;;15.60;55.00;;;;;;5056175;28;20222;-81
2020/12/11 03:16:35;;;;;;;6.30;5.70;;;15.70;55.10;;;;;;5034748;28;20038;-82
2020/12/11 03:19:01;;;;;;;6.60;5.90;;;15.80;55.20;;;;;;5072058;28;20052;-82
2020/12/11 03:21:27;;;;;;;7.35;5.57;;;15.70;55.20;;;;;;5071202;28;20052;-81
2020/12/11 03:23:52;;;;;;;6.88;6.07;;;15.70;55.20;;;;;;5072318;28;20547;-81
2020/12/11 03:26:18;;;;;;;6.72;5.78;;;15.70;55.80;;;;;;5073755;28;20032;-81
2020/12/11 03:28:44;;;;;;;5.97;5.38;;;15.60;55.20;;;;;;5070162;28;20067;-83
2020/12/11 03:31:09;;;;;;;6.63;5.93;;;15.60;55.20;;;;;;5077892;28;20063;-80
2020/12/11 03:33:56;;;;;;;6.88;5.80;;;15.60;55.80;;;;;;5058000;28;20411;-80
2020/12/11 03:36:40;;;;;;;6.63;5.75;;;15.60;55.30;;;;;;5084362;28;20036;-80
2020/12/11 03:39:06;;;;;;;7.05;5.60;;;15.70;56.00;;;;;;5076945;28;20063;-80
2020/12/11 03:41:31;;;;;;;6.07;5.47;;;15.60;55.30;;;;;;5067378;28;20063;-79
2020/12/11 03:43:57;;;;;;;8.90;5.93;;;15.50;55.20;;;;;;5061928;28;20046;-80
2020/12/11 03:46:43;;;;;;;6.38;5.68;;;15.60;55.30;;;;;;5056361;28;20053;-82
2020/12/11 03:49:28;;;;;;;6.45;5.55;;;15.70;55.30;;;;;;5033999;28;20143;-81
2020/12/11 03:51:54;;;;;;;5.93;5.32;;;15.60;55.30;;;;;;5072687;28;20519;-81
2020/12/11 03:54:40;;;;;;;6.50;5.80;;;15.70;55.30;;;;;;5062596;28;20051;-83
2020/12/11 03:57:06;;;;;;;6.60;5.70;;;15.60;55.30;;;;;;5091356;28;20036;-80
2020/12/11 03:59:51;;;;;;;6.93;5.65;;;15.60;55.20;;;;;;5036259;28;20182;-82
2020/12/11 04:02:37;;;;;;;5.97;5.18;;;15.60;55.30;;;;;;5075775;28;20063;-82
2020/12/11 04:05:04;;;;;;;6.82;5.70;;;15.60;55.30;;;;;;5056094;28;20112;-83
2020/12/11 04:07:29;;;;;;;6.53;5.45;;;15.70;55.30;;;;;;5072340;28;20119;-83
2020/12/11 04:09:55;;;;;;;6.00;5.30;;;15.60;55.20;;;;;;5057093;28;20088;-82
2020/12/11 04:12:41;;;;;;;5.70;5.18;;;15.60;55.30;;;;;;5074672;28;20097;-82
2020/12/11 04:15:26;;;;;;;5.60;4.97;;;15.60;55.40;;;;;;5058954;28;20040;-80
2020/12/11 04:17:52;;;;;;;6.05;5.10;;;15.50;55.30;;;;;;5072327;28;20043;-81
2020/12/11 04:20:38;;;;;;;5.68;5.07;;;15.60;55.40;;;;;;5047844;28;20040;-82
2020/12/11 04:23:03;;;;;;;6.00;5.40;;;15.50;55.40;;;;;;5070890;28;20050;-81
2020/12/11 04:25:49;;;;;;;5.85;5.25;;;15.50;55.30;;;;;;5073786;28;20040;-82
2020/12/11 04:28:15;;;;;;;6.30;5.55;;;15.50;55.40;;;;;;5056531;28;20111;-81
2020/12/11 04:30:40;;;;;;;5.72;5.05;;;15.60;55.40;;;;;;5091260;28;20028;-80
2020/12/11 04:33:06;;;;;;;5.72;5.13;;;15.50;55.30;;;;;;5092553;28;20387;-80
2020/12/11 04:35:33;;;;;;;7.20;4.90;;;15.50;55.40;;;;;;5094471;28;20608;-83
2020/12/11 04:37:59;;;;;;;5.97;5.38;;;15.60;55.40;;;;;;5093648;28;20123;-81
2020/12/11 04:40:25;;;;;;;5.65;5.03;;;15.50;55.40;;;;;;5074319;28;20082;-83
2020/12/11 04:43:11;;;;;;;5.70;5.03;;;15.60;55.40;;;;;;5050693;28;20073;-83
2020/12/11 04:45:38;;;;;;;5.63;5.00;;;15.50;55.40;;;;;;5060801;28;20070;-83
2020/12/11 04:48:03;;;;;;;5.38;4.80;;;15.50;55.50;;;;;;5084777;28;20188;-82
2020/12/11 04:51:07;;;;;;;5.93;5.32;;;15.50;55.50;;;;;;5062998;28;20535;-84
2020/12/11 04:53:34;;;;;;;5.72;5.13;;;15.50;55.60;;;;;;5080148;28;20042;-81
2020/12/11 04:56:04;;;;;;;5.38;4.85;;;15.50;55.50;;;;;;5075832;28;20101;-83
2020/12/11 04:58:31;;;;;;;6.03;5.03;;;15.50;55.50;;;;;;5076097;28;20029;-83
2020/12/11 05:01:28;;;;;;;5.63;5.07;;;15.50;55.40;;;;;;5034654;28;20054;-81
2020/12/11 05:03:55;;;;;;;5.60;5.00;;;15.50;55.50;;;;;;5073662;28;20542;-81
2020/12/11 05:06:21;;;;;;;5.10;4.60;;;15.50;55.50;;;;;;5060810;28;20040;-83
2020/12/11 05:08:47;;;;;;;5.10;4.60;;;15.40;55.50;;;;;;5090914;28;20118;-82
2020/12/11 05:11:26;;;;;;;5.60;5.00;;;15.50;55.50;;;;;;5057088;28;20471;-82
2020/12/11 05:13:52;;;;;;;5.75;4.85;;;15.40;55.50;;;;;;5074673;28;20056;-82
2020/12/11 05:16:17;;;;;;;4.90;4.47;;;15.40;55.40;;;;;;5077545;28;20394;-83
2020/12/11 05:18:43;;;;;;;5.57;4.82;;;15.50;55.40;;;;;;5074138;28;20136;-81
2020/12/11 05:21:16;;;;;;;4.97;4.47;;;15.50;55.40;;;;;;5074103;28;20058;-80
2020/12/11 05:24:04;;;;;;;5.30;4.72;;;15.50;55.50;;;;;;5075204;28;20432;-81
2020/12/11 05:26:31;;;;;;;5.25;4.72;;;15.40;55.50;;;;;;5073617;28;20034;-83
2020/12/11 05:28:58;;;;;;;5.40;4.50;;;15.40;55.40;;;;;;5075491;28;20119;-82
2020/12/11 05:31:23;;;;;;;5.65;4.88;;;15.40;55.50;;;;;;5089333;28;20043;-81
2020/12/11 05:34:03;;;;;;;5.80;4.85;;;15.40;55.50;;;;;;5078382;28;20510;-84
2020/12/11 05:36:49;;;;;;;5.10;4.60;;;15.40;55.50;;;;;;5058401;28;20392;-82
2020/12/11 05:39:30;;;;;;;5.35;4.72;;;15.50;55.60;;;;;;5093329;28;20040;-80
2020/12/11 05:41:56;;;;;;;5.05;4.50;;;15.40;55.60;;;;;;5055962;28;20035;-81
2020/12/11 05:44:26;;;;;;;4.65;4.20;;;15.40;55.40;;;;;;5073461;28;20506;-81
2020/12/11 05:46:51;;;;;;;5.28;4.68;;;15.50;55.50;;;;;;5076742;28;20056;-80
2020/12/11 05:49:25;;;;;;;5.38;4.88;;;15.40;55.50;;;;;;5071495;28;20190;-81
2020/12/11 05:52:15;;;;;;;5.22;4.72;;;15.40;55.50;;;;;;5049525;28;20055;-83
2020/12/11 05:54:42;;;;;;;5.07;4.30;;;15.30;55.50;;;;;;5055794;28;20463;-80
2020/12/11 05:57:28;;;;;;;5.07;4.57;;;15.40;55.50;;;;;;5046155;28;20055;-81
2020/12/11 06:00:13;;;;;;;4.65;4.25;;;15.30;55.60;;;;;;5061878;28;20051;-80
2020/12/11 06:02:59;;;;;;;4.55;4.15;;;15.10;55.80;;;;;;5063071;28;20047;-81
2020/12/11 06:05:25;;;;;;;5.30;4.68;;;15.20;56.20;;;;;;5056932;28;20028;-81
2020/12/11 06:07:51;;;;;;;5.10;4.60;;;15.00;56.30;;;;;;5057508;28;20090;-81
2020/12/11 06:10:20;;;;;;;5.32;4.55;;;15.00;56.50;;;;;;5073082;28;20503;-81
2020/12/11 06:13:06;;;;;;;4.50;4.10;;;15.00;56.70;;;;;;5078724;28;20070;-82
2020/12/11 06:15:38;;;;;;;4.72;4.10;;;15.00;56.70;;;;;;5055347;28;20071;-80
2020/12/11 06:18:07;;;;;;;6.53;4.35;;;15.00;56.70;;;;;;5045607;28;20117;-80
2020/12/11 06:20:33;;;;;;;5.25;4.03;;;15.10;56.70;;;;;;5095791;28;20249;-80
2020/12/11 06:23:22;;;;;;;4.22;3.83;;;15.10;56.60;;;;;;5053415;28;20549;-80
2020/12/11 06:25:57;;;;;;;4.70;4.10;;;15.20;56.50;;;;;;5083287;28;20053;-81
2020/12/11 06:28:45;;;;;;;4.50;3.92;;;15.30;56.20;;;;;;5078530;28;20049;-80
2020/12/11 06:31:31;;;;;;;4.85;4.20;;;15.40;55.80;;;;;;5051147;28;20175;-81
2020/12/11 06:33:57;;;;;;;4.28;3.88;;;15.70;55.40;;;;;;5089853;28;20126;-81
2020/12/11 06:36:43;;;;;;;4.00;3.60;;;16.00;54.80;;;;;;5059981;28;20064;-80
2020/12/11 06:39:39;;;;;;;3.80;3.40;;;16.10;54.00;;;;;;5061644;28;20071;-81
2020/12/11 06:42:09;;;;;;;5.18;3.90;;;16.60;53.10;;;;;;5065234;28;20485;-82
2020/12/11 06:44:35;;;;;;;3.88;3.50;;;16.90;52.50;;;;;;5058905;28;20051;-82
2020/12/11 06:47:04;;;;;;;3.85;3.45;;;17.20;51.70;;;;;;5074499;28;20063;-81
2020/12/11 06:50:06;;;;;;;4.15;3.75;;;17.50;51.00;;;;;;5040867;28;20036;-82
2020/12/11 06:52:52;;;;;;;3.53;3.15;;;17.70;50.20;;;;;;5034438;28;20032;-81
2020/12/11 06:55:18;;;;;;;5.60;3.35;;;17.90;50.10;;;;;;5073383;28;20044;-81
2020/12/11 06:58:04;;;;;;;4.03;3.50;;;18.00;49.70;;;;;;5048758;28;20059;-80
2020/12/11 07:00:34;;;;;;;4.38;3.50;;;18.20;49.40;;;;;;5072770;28;20410;-80
2020/12/11 07:03:20;;;;;;;3.90;3.40;;;18.20;49.10;;;;;;5089669;28;20036;-81
2020/12/11 07:05:54;;;;;;;4.32;3.30;;;18.30;48.30;;;;;;5072660;28;20097;-82
2020/12/11 07:08:20;;;;;;;4.05;3.47;;;18.30;48.80;;;;;;5053787;28;20059;-81
2020/12/11 07:10:46;;;;;;;6.47;3.83;;;18.00;49.30;;;;;;5070912;28;20074;-81
2020/12/11 07:13:12;;;;;;;4.05;3.65;;;17.60;49.90;;;;;;5092036;28;20048;-80
2020/12/11 07:15:38;;;;;;;4.43;3.60;;;17.40;50.50;;;;;;5030747;28;20041;-80
2020/12/11 07:18:04;;;;;;;4.05;3.65;;;17.10;51.00;;;;;;5087028;28;20055;-80
2020/12/11 07:20:51;;;;;;;5.60;4.05;;;16.90;51.60;;;;;;5077966;28;20122;-79
2020/12/11 07:23:17;;;;;;;4.63;3.65;;;16.70;52.00;;;;;;5082861;28;20035;-80
2020/12/11 07:25:42;;;;;;;4.75;4.25;;;16.50;52.30;;;;;;5099835;28;20054;-81
2020/12/11 07:28:08;;;;;;;3.90;3.45;;;16.50;52.50;;;;;;5043079;28;20105;-79
2020/12/11 07:30:34;;;;;;;4.22;3.83;;;16.50;52.60;;;;;;5037318;28;20490;-81
2020/12/11 07:33:20;;;;;;;3.70;3.30;;;16.40;52.80;;;;;;5046781;28;20509;-81
2020/12/11 07:35:47;;;;;;;4.68;4.00;;;16.40;52.80;;;;;;5054685;28;20036;-83
2020/12/11 07:38:32;;;;;;;4.63;3.90;;;16.40;53.00;;;;;;5088991;28;20042;-81
2020/12/11 07:40:59;;;;;;;4.15;3.72;;;16.30;53.00;;;;;;5080711;28;20067;-82
2020/12/11 07:43:46;;;;;;;3.42;3.13;;;16.20;53.10;;;;;;5039854;28;20040;-81
2020/12/11 07:46:12;;;;;;;3.55;3.25;;;16.30;53.30;;;;;;5061092;28;20048;-81
2020/12/11 07:48:57;;;;;;;3.25;2.95;;;16.20;53.30;;;;;;5045709;28;20036;-80
2020/12/11 07:51:23;;;;;;;4.00;3.60;;;16.20;53.40;;;;;;5070296;28;20044;-81
2020/12/11 07:53:53;;;;;;;4.25;3.72;;;16.20;53.50;;;;;;5055614;28;20044;-81
2020/12/11 07:56:18;;;;;;;5.07;3.78;;;16.20;53.50;;;;;;5043056;28;20048;-80
2020/12/11 07:58:44;;;;;;;4.20;3.50;;;16.20;53.50;;;;;;5053355;28;20510;-81
2020/12/11 08:01:10;;;;;;;3.83;3.50;;;16.20;53.50;;;;;;5071015;28;20076;-81
2020/12/11 08:03:56;;;;;;;4.10;3.40;;;16.20;53.50;;;;;;5045351;28;20040;-82
2020/12/11 08:06:58;;;;;;;5.03;3.97;;;16.10;53.60;;;;;;5060432;28;20052;-79
2020/12/11 08:09:29;;;;;;;4.10;3.70;;;16.10;53.70;;;;;;5089106;28;20478;-81
2020/12/11 08:12:19;;;;;;;4.07;3.67;;;16.10;53.70;;;;;;5064593;28;20059;-79
2020/12/11 08:15:05;;;;;;;4.10;3.40;;;16.00;53.70;;;;;;5053342;28;20050;-79
2020/12/11 08:17:34;;;;;;;4.25;3.65;;;16.00;53.70;;;;;;5076870;28;20040;-79
2020/12/11 08:20:04;;;;;;;5.07;3.72;;;16.00;53.80;;;;;;5062195;28;20578;-80
2020/12/11 08:22:31;;;;;;;6.40;4.13;;;16.00;53.80;;;;;;5042937;28;20105;-79
2020/12/11 08:24:57;;;;;;;4.28;3.67;;;15.90;53.70;;;;;;5061395;28;20059;-79
2020/12/11 08:27:27;;;;;;;4.85;3.75;;;15.90;53.80;;;;;;5040275;28;20052;-79
2020/12/11 08:30:12;;;;;;;3.90;3.25;;;15.90;53.80;;;;;;5059912;28;20518;-80
2020/12/11 08:32:38;;;;;;;4.28;3.78;;;15.90;53.90;;;;;;5041840;28;20432;-80
2020/12/11 08:35:16;;;;;;;4.45;3.80;;;15.90;53.90;;;;;;5076690;28;20094;-81
2020/12/11 08:37:58;;;;;;;5.88;3.55;;;15.90;53.80;;;;;;5060513;28;20052;-80
2020/12/11 08:40:27;;;;;;;5.18;3.83;;;15.90;53.80;;;;;;5078040;28;20032;-80
2020/12/11 08:45:50;;;;;;;4.15;3.40;;;15.90;53.90;;;;;;5060854;28;20165;-80
2020/12/11 08:50:49;;;;;;;6.00;3.95;;;15.80;53.90;;;;;;5070686;28;20471;-80
2020/12/11 08:53:16;;;;;;;4.45;3.50;;;15.90;53.80;;;;;;5059435;28;20051;-80
2020/12/11 08:55:42;;;;;;;5.72;3.90;;;15.80;53.80;;;;;;5072446;28;20098;-80
2020/12/11 08:58:28;;;;;;;4.78;3.75;;;15.80;53.80;;;;;;5073461;28;20509;-80
2020/12/11 09:00:53;;;;;;;6.50;3.60;;;15.80;53.80;;;;;;5073828;28;20044;-80
2020/12/11 09:03:19;;;;;;;6.15;3.65;;;15.80;53.70;;;;;;5072947;28;20060;-80
2020/12/11 09:05:45;;;;;;;5.53;3.90;;;15.80;53.70;;;;;;5090099;28;20090;-80
2020/12/11 09:08:11;;;;;;;5.80;3.90;;;15.80;53.70;;;;;;5072457;28;20072;-80
2020/12/11 09:10:56;;;;;;;5.93;4.10;;;15.80;53.70;;;;;;5060021;28;20048;-80
2020/12/11 09:13:43;;;;;;;5.13;3.67;;;15.80;53.70;;;;;;5087008;28;20110;-80
2020/12/11 09:16:29;;;;;;;4.50;3.95;;;15.70;53.60;;;;;;5041254;28;20044;-81
2020/12/11 09:19:16;;;;;;;4.65;3.72;;;15.80;53.80;;;;;;5057848;28;20041;-81
2020/12/11 09:21:42;;;;;;;6.65;4.25;;;15.70;53.70;;;;;;5061277;28;20131;-81
2020/12/11 09:24:09;;;;;;;5.85;4.20;;;15.80;53.60;;;;;;5097009;28;20044;-82
2020/12/11 09:26:35;;;;;;;5.68;3.70;;;15.70;53.50;;;;;;5056767;28;20106;-79
2020/12/11 09:29:39;;;;;;;4.55;3.55;;;15.70;53.50;;;;;;5058683;28;20044;-79
2020/12/11 09:32:06;;;;;;;6.53;4.00;;;15.70;53.50;;;;;;5072986;28;20048;-81
2020/12/11 09:34:34;;;;;;;4.90;3.63;;;15.70;53.50;;;;;;5072364;28;20440;-80
2020/12/11 09:37:00;;;;;;;4.78;3.80;;;15.80;53.50;;;;;;5072643;28;20059;-80
2020/12/11 09:39:46;;;;;;;5.60;3.63;;;15.80;53.40;;;;;;5058901;28;20049;-78
2020/12/11 09:47:39;;;;;;;4.38;3.70;;;15.80;54.00;;;;;;5070180;28;20495;-75
2020/12/11 09:50:32;;;;;;;4.70;3.78;;;15.80;53.40;;;;;;5053883;28;20128;-75
2020/12/11 09:55:16;;;;;;;4.70;4.05;;;15.80;53.30;;;;;;5049211;28;20127;-78
2020/12/11 09:58:02;;;;;;;4.68;3.67;;;15.80;53.30;;;;;;5045514;28;20044;-77
2020/12/11 10:00:27;;;;;;;4.47;3.65;;;15.80;53.30;;;;;;5031727;28;20132;-78
2020/12/11 10:03:17;;;;;;;4.80;3.90;;;15.70;53.20;;;;;;5078412;28;20068;-78
2020/12/11 10:05:43;;;;;;;4.90;3.80;;;15.80;53.30;;;;;;5076244;28;20028;-78
2020/12/11 10:08:09;;;;;;;5.00;3.90;;;15.80;53.20;;;;;;5093577;28;20036;-78
2020/12/11 10:10:35;;;;;;;5.97;3.90;;;15.80;53.20;;;;;;5058465;28;20051;-78
2020/12/11 10:13:01;;;;;;;5.20;3.65;;;15.80;53.20;;;;;;5075737;28;20151;-78
2020/12/11 10:15:27;;;;;;;4.38;3.55;;;15.80;53.10;;;;;;5058761;28;20129;-78
2020/12/11 10:17:53;;;;;;;5.38;3.75;;;15.90;53.10;;;;;;5075678;28;20141;-77
2020/12/11 10:20:20;;;;;;;4.65;3.83;;;15.80;53.00;;;;;;5054329;28;20057;-78
2020/12/11 10:22:50;;;;;;;7.10;4.05;;;15.80;53.00;;;;;;5102110;28;20467;-78
2020/12/11 10:25:16;;;;;;;4.43;3.70;;;15.80;53.00;;;;;;5040272;28;20407;-78
2020/12/11 10:27:42;;;;;;;9.70;3.88;;;15.80;53.00;;;;;;5058129;28;20040;-77
2020/12/11 10:30:28;;;;;;;5.05;4.00;;;15.80;52.90;;;;;;5060527;28;20059;-78
2020/12/11 10:32:54;;;;;;;5.40;3.38;;;15.80;53.00;;;;;;5074798;28;20056;-78
2020/12/11 10:35:20;;;;;;;6.38;3.90;;;15.80;53.00;;;;;;5075145;28;20036;-78
2020/12/11 10:37:46;;;;;;;5.75;3.50;;;15.80;52.90;;;;;;5058231;28;20070;-77
2020/12/11 10:40:11;;;;;;;5.88;3.90;;;15.80;52.90;;;;;;5092206;28;20036;-78
2020/12/11 10:42:37;;;;;;;4.55;3.58;;;15.80;52.90;;;;;;5090803;28;20482;-77
2020/12/11 10:45:03;;;;;;;5.43;3.67;;;15.80;52.80;;;;;;5074175;28;20055;-78
2020/12/11 10:47:29;;;;;;;6.28;3.67;;;15.80;52.80;;;;;;5058621;28;20127;-78
2020/12/11 10:49:55;;;;;;;6.07;4.97;;;15.80;52.80;;;;;;5056993;28;20052;-78
2020/12/11 10:52:21;;;;;;;8.05;5.97;;;15.80;52.80;;;;;;5040585;28;20094;-78
2020/12/11 10:54:47;;;;;;;14.85;9.32;;;15.80;52.70;;;;;;5056623;28;20040;-78
2020/12/11 10:57:14;;;;;;;69.15;36.25;;;15.80;52.60;;;;;;5088290;28;20056;-77
2020/12/11 10:59:59;;;;;;;34.30;20.65;;;15.90;52.60;;;;;;5062655;28;20046;-80
2020/12/11 11:02:45;;;;;;;30.60;17.52;;;15.90;52.60;;;;;;5048143;28;20048;-79
2020/12/11 11:05:31;;;;;;;28.25;16.55;;;15.90;52.40;;;;;;5032374;28;20048;-78
2020/12/11 11:07:56;;;;;;;26.67;16.13;;;15.90;52.40;;;;;;5054348;28;20055;-79
2020/12/11 11:10:32;;;;;;;79.95;40.05;;;15.90;52.40;;;;;;5054261;28;20053;-79
2020/12/11 11:13:13;;;;;;;82.88;43.55;;;16.00;52.30;;;;;;5050165;28;20048;-78
2020/12/11 11:15:48;;;;;;;79.47;41.58;;;15.90;52.20;;;;;;5062037;28;20032;-77
2020/12/11 11:28:22;;;;;;;51.42;27.75;;;15.90;52.10;;;;;;5051192;28;20035;-78
2020/12/11 11:30:48;;;;;;;50.88;28.08;;;16.00;52.10;;;;;;5060806;28;20475;-78
2020/12/11 11:33:33;;;;;;;51.75;28.58;;;16.00;52.10;;;;;;5067765;28;20093;-77
2020/12/11 11:35:59;;;;;;;58.30;30.90;;;15.90;52.10;;;;;;5057069;28;20097;-78
2020/12/11 11:38:25;;;;;;;53.78;29.65;;;15.90;52.10;;;;;;5057776;28;20386;-78
2020/12/11 11:40:52;;;;;;;50.55;29.08;;;16.00;52.10;;;;;;5074788;28;20036;-79
2020/12/11 11:46:22;;;;;;;52.38;27.88;;;16.00;52.00;;;;;;5079624;28;20489;-80
2020/12/11 11:49:10;;;;;;;44.78;26.35;;;16.00;51.90;;;;;;5065916;28;20771;-79
2020/12/11 11:54:40;;;;;;;167.48;26.60;;;16.00;51.80;;;;;;5081059;28;20520;-80
2020/12/11 11:57:06;;;;;;;62.80;27.17;;;15.50;49.00;;;;;;5061719;28;20052;-81
2020/12/11 11:59:51;;;;;;;52.67;28.27;;;15.30;51.00;;;;;;5053578;28;20036;-81
2020/12/11 12:02:17;;;;;;;61.97;27.13;;;15.40;51.20;;;;;;5074836;28;20534;-80
2020/12/11 12:04:43;;;;;;;56.45;26.67;;;15.40;50.80;;;;;;5079172;28;20043;-81
2020/12/11 12:07:08;;;;;;;96.30;23.73;;;15.40;50.60;;;;;;5075585;28;20036;-82
2020/12/11 12:09:35;;;;;;;57.15;23.70;;;14.40;46.70;;;;;;5060608;28;20047;-85
2020/12/11 12:12:21;;;;;;;43.88;23.23;;;15.00;50.50;;;;;;5057293;28;20037;-80
2020/12/11 12:15:10;;;;;;;47.17;22.65;;;15.10;50.50;;;;;;5075819;28;20044;-78
2020/12/11 12:18:02;;;;;;;50.13;22.40;;;15.10;50.40;;;;;;5069991;28;20040;-83
2020/12/11 12:31:17;;;;;;;32.60;17.73;;;15.40;51.40;;;;;;5047698;28;20488;-75
2020/12/11 12:44:59;;;;;;;26.38;14.52;;;15.50;49.20;;;;;;5014559;28;20088;-75
2020/12/11 12:47:26;;;;;;;26.98;13.60;;;15.50;49.20;;;;;;5023209;28;20058;-74
2020/12/11 12:49:51;;;;;;;22.50;12.65;;;15.50;49.20;;;;;;5021092;28;20044;-74
2020/12/11 12:52:17;;;;;;;22.75;12.77;;;15.50;49.00;;;;;;4986644;28;20577;-74
2020/12/11 12:54:42;;;;;;;22.08;12.38;;;15.40;49.00;;;;;;5010302;28;20059;-75
2020/12/11 12:57:16;;;;;;;22.08;12.38;;;15.50;49.00;;;;;;4996207;28;20054;-75
2020/12/11 13:00:00;;;;;;;22.52;12.15;;;15.50;49.00;;;;;;5012428;28;20061;-75
2020/12/11 13:05:31;;;;;;;19.90;10.95;;;15.50;48.90;;;;;;4981909;28;20108;-75
2020/12/11 13:08:16;;;;;;;17.05;10.73;;;15.50;48.80;;;;;;4997623;28;20547;-74
2020/12/11 13:10:42;;;;;;;19.42;10.93;;;15.50;48.70;;;;;;4978491;28;20077;-75
2020/12/11 13:13:28;;;;;;;14.90;9.45;;;15.50;48.60;;;;;;5011899;28;20048;-75
2020/12/11 13:15:53;;;;;;;17.75;9.60;;;15.60;48.60;;;;;;5090712;28;20036;-75
2020/12/11 13:18:19;;;;;;;16.60;9.55;;;15.60;48.60;;;;;;5086974;28;20471;-75
2020/12/11 13:20:46;;;;;;;14.05;9.23;;;15.50;48.40;;;;;;5075046;28;20513;-74
2020/12/11 13:26:24;;;;;;;15.52;9.15;;;15.50;48.30;;;;;;5077004;28;20046;-75
2020/12/11 13:28:49;;;;;;;13.82;8.45;;;15.50;48.30;;;;;;5079100;28;20039;-74
2020/12/11 13:31:16;;;;;;;14.00;8.30;;;15.50;48.20;;;;;;5078492;28;20382;-74
2020/12/11 13:33:42;;;;;;;13.18;8.10;;;15.50;48.10;;;;;;5054966;28;20101;-74
2020/12/11 13:36:28;;;;;;;12.55;7.85;;;15.50;48.10;;;;;;5063483;28;20050;-76
2020/12/11 13:38:53;;;;;;;13.23;7.95;;;15.50;48.00;;;;;;5072150;28;20039;-75
2020/12/11 13:41:21;;;;;;;13.18;7.95;;;15.50;48.00;;;;;;5082001;28;20032;-74
2020/12/11 13:43:47;;;;;;;14.93;7.72;;;15.50;48.10;;;;;;5056884;28;20043;-75
2020/12/11 13:46:32;;;;;;;10.73;7.13;;;15.50;47.90;;;;;;5049466;28;20046;-75
2020/12/11 13:49:20;;;;;;;11.27;7.07;;;15.40;48.00;;;;;;5062357;28;20052;-75
2020/12/11 13:51:46;;;;;;;11.50;7.43;;;15.40;48.00;;;;;;5072998;28;20059;-75
2020/12/11 13:54:32;;;;;;;12.15;6.95;;;15.40;48.10;;;;;;5049173;28;20102;-75
2020/12/11 13:56:57;;;;;;;12.20;6.90;;;15.40;48.00;;;;;;5110547;27;20067;-75
2020/12/11 13:59:23;;;;;;;8.73;6.43;;;15.40;48.00;;;;;;5058570;28;20051;-75
2020/12/11 14:01:49;;;;;;;10.70;6.75;;;15.40;48.00;;;;;;5078481;28;20035;-75
2020/12/11 14:04:34;;;;;;;8.60;6.22;;;15.40;48.10;;;;;;5073951;28;20044;-75
2020/12/11 14:07:20;;;;;;;11.82;5.90;;;15.50;48.00;;;;;;5071241;28;20062;-75